sensor_id;sensor_type;location;lat;lon;timestamp;P1;durP1;ratioP1;P2;durP2;ratioP2
67442;SDS011;54311;51.726;5.154;2023-08-30T00:02:07;10.20;;;9.18;;
67442;SDS011;54311;51.726;5.154;2023-08-30T00:04:33;11.23;;;10.07;;
67442;SDS011;54311;51.726;5.154;2023-08-30T00:06:58;11.43;;;10.50;;
67442;SDS011;54311;51.726;5.154;2023-08-30T00:09:24;11.52;;;10.63;;
67442;SDS011;54311;51.726;5.154;2023-08-30T00:11:50;11.82;;;10.90;;
67442;SDS011;54311;51.726;5.154;2023-08-30T00:14:15;13.38;;;11.27;;
67442;SDS011;54311;51.726;5.154;2023-08-30T00:16:40;13.50;;;11.23;;
67442;SDS011;54311;51.726;5.154;2023-08-30T00:19:06;13.30;;;12.10;;
67442;SDS011;54311;51.726;5.154;2023-08-30T00:21:31;12.35;;;11.13;;
67442;SDS011;54311;51.726;5.154;2023-08-30T00:23:56;13.68;;;11.35;;
67442;SDS011;54311;51.726;5.154;2023-08-30T00:26:22;13.23;;;12.02;;
67442;SDS011;54311;51.726;5.154;2023-08-30T00:28:47;15.10;;;11.90;;
67442;SDS011;54311;51.726;5.154;2023-08-30T00:31:13;13.23;;;11.88;;
67442;SDS011;54311;51.726;5.154;2023-08-30T00:33:38;13.70;;;12.32;;
67442;SDS011;54311;51.726;5.154;2023-08-30T00:36:03;12.57;;;11.52;;
67442;SDS011;54311;51.726;5.154;2023-08-30T00:38:32;12.68;;;11.48;;
67442;SDS011;54311;51.726;5.154;2023-08-30T00:40:58;16.48;;;12.35;;
67442;SDS011;54311;51.726;5.154;2023-08-30T00:43:24;14.75;;;12.60;;
67442;SDS011;54311;51.726;5.154;2023-08-30T00:45:49;13.68;;;12.45;;
67442;SDS011;54311;51.726;5.154;2023-08-30T00:48:15;14.18;;;11.82;;
67442;SDS011;54311;51.726;5.154;2023-08-30T00:50:41;15.80;;;12.57;;
67442;SDS011;54311;51.726;5.154;2023-08-30T00:53:07;13.93;;;12.63;;
67442;SDS011;54311;51.726;5.154;2023-08-30T00:55:33;15.20;;;12.65;;
67442;SDS011;54311;51.726;5.154;2023-08-30T00:57:59;15.23;;;13.25;;
67442;SDS011;54311;51.726;5.154;2023-08-30T01:00:27;14.52;;;13.00;;
67442;SDS011;54311;51.726;5.154;2023-08-30T01:02:53;14.73;;;13.30;;
67442;SDS011;54311;51.726;5.154;2023-08-30T01:05:19;13.57;;;12.27;;
67442;SDS011;54311;51.726;5.154;2023-08-30T01:07:45;14.02;;;12.63;;
67442;SDS011;54311;51.726;5.154;2023-08-30T01:10:10;13.32;;;11.95;;
67442;SDS011;54311;51.726;5.154;2023-08-30T01:12:40;12.88;;;11.70;;
67442;SDS011;54311;51.726;5.154;2023-08-30T01:15:12;18.17;;;12.80;;
67442;SDS011;54311;51.726;5.154;2023-08-30T01:17:42;15.02;;;13.35;;
67442;SDS011;54311;51.726;5.154;2023-08-30T01:20:10;12.57;;;11.48;;
67442;SDS011;54311;51.726;5.154;2023-08-30T01:30:16;15.13;;;11.70;;
67442;SDS011;54311;51.726;5.154;2023-08-30T01:32:42;13.82;;;12.48;;
67442;SDS011;54311;51.726;5.154;2023-08-30T01:35:08;14.20;;;12.88;;
67442;SDS011;54311;51.726;5.154;2023-08-30T01:37:34;14.65;;;13.20;;
67442;SDS011;54311;51.726;5.154;2023-08-30T01:40:01;15.00;;;13.60;;
67442;SDS011;54311;51.726;5.154;2023-08-30T01:42:27;14.32;;;12.48;;
67442;SDS011;54311;51.726;5.154;2023-08-30T01:44:53;17.60;;;13.52;;
67442;SDS011;54311;51.726;5.154;2023-08-30T01:47:23;14.35;;;13.05;;
67442;SDS011;54311;51.726;5.154;2023-08-30T01:49:51;14.35;;;12.93;;
67442;SDS011;54311;51.726;5.154;2023-08-30T01:52:18;14.93;;;13.60;;
67442;SDS011;54311;51.726;5.154;2023-08-30T01:54:43;14.88;;;13.38;;
67442;SDS011;54311;51.726;5.154;2023-08-30T01:57:10;14.48;;;13.07;;
67442;SDS011;54311;51.726;5.154;2023-08-30T01:59:35;14.68;;;13.13;;
67442;SDS011;54311;51.726;5.154;2023-08-30T02:02:00;14.68;;;13.02;;
67442;SDS011;54311;51.726;5.154;2023-08-30T02:04:26;15.23;;;12.60;;
67442;SDS011;54311;51.726;5.154;2023-08-30T02:06:55;16.77;;;12.07;;
67442;SDS011;54311;51.726;5.154;2023-08-30T02:11:48;13.77;;;12.20;;
67442;SDS011;54311;51.726;5.154;2023-08-30T02:14:16;14.10;;;12.70;;
67442;SDS011;54311;51.726;5.154;2023-08-30T02:16:43;14.55;;;12.27;;
67442;SDS011;54311;51.726;5.154;2023-08-30T02:19:08;14.85;;;13.18;;
67442;SDS011;54311;51.726;5.154;2023-08-30T02:21:34;18.33;;;12.10;;
67442;SDS011;54311;51.726;5.154;2023-08-30T02:23:59;14.45;;;12.95;;
67442;SDS011;54311;51.726;5.154;2023-08-30T02:26:24;13.15;;;11.93;;
67442;SDS011;54311;51.726;5.154;2023-08-30T02:28:50;14.00;;;12.70;;
67442;SDS011;54311;51.726;5.154;2023-08-30T02:31:15;14.27;;;12.68;;
67442;SDS011;54311;51.726;5.154;2023-08-30T02:33:40;14.63;;;13.07;;
67442;SDS011;54311;51.726;5.154;2023-08-30T02:36:06;14.40;;;12.02;;
67442;SDS011;54311;51.726;5.154;2023-08-30T02:38:33;14.13;;;12.73;;
67442;SDS011;54311;51.726;5.154;2023-08-30T02:40:58;12.90;;;11.70;;
67442;SDS011;54311;51.726;5.154;2023-08-30T02:43:23;13.13;;;11.82;;
67442;SDS011;54311;51.726;5.154;2023-08-30T02:45:49;13.75;;;12.35;;
67442;SDS011;54311;51.726;5.154;2023-08-30T02:48:14;14.27;;;12.85;;
67442;SDS011;54311;51.726;5.154;2023-08-30T02:50:40;13.02;;;11.80;;
67442;SDS011;54311;51.726;5.154;2023-08-30T02:53:05;15.65;;;13.45;;
67442;SDS011;54311;51.726;5.154;2023-08-30T02:55:33;13.63;;;12.23;;
67442;SDS011;54311;51.726;5.154;2023-08-30T02:57:59;15.13;;;11.80;;
67442;SDS011;54311;51.726;5.154;2023-08-30T03:00:24;13.73;;;12.38;;
67442;SDS011;54311;51.726;5.154;2023-08-30T03:02:50;14.13;;;12.63;;
67442;SDS011;54311;51.726;5.154;2023-08-30T03:05:15;14.40;;;12.38;;
67442;SDS011;54311;51.726;5.154;2023-08-30T03:07:40;13.38;;;12.07;;
67442;SDS011;54311;51.726;5.154;2023-08-30T03:10:06;13.77;;;11.95;;
67442;SDS011;54311;51.726;5.154;2023-08-30T03:12:31;14.35;;;12.77;;
67442;SDS011;54311;51.726;5.154;2023-08-30T03:14:58;13.15;;;11.95;;
67442;SDS011;54311;51.726;5.154;2023-08-30T03:17:23;15.48;;;12.45;;
67442;SDS011;54311;51.726;5.154;2023-08-30T03:19:51;15.27;;;12.57;;
67442;SDS011;54311;51.726;5.154;2023-08-30T03:22:18;13.38;;;12.02;;
67442;SDS011;54311;51.726;5.154;2023-08-30T03:24:43;19.35;;;13.38;;
67442;SDS011;54311;51.726;5.154;2023-08-30T03:27:08;15.07;;;11.93;;
67442;SDS011;54311;51.726;5.154;2023-08-30T03:29:34;16.45;;;12.88;;
67442;SDS011;54311;51.726;5.154;2023-08-30T03:31:59;15.85;;;13.02;;
67442;SDS011;54311;51.726;5.154;2023-08-30T03:34:24;14.13;;;12.80;;
67442;SDS011;54311;51.726;5.154;2023-08-30T03:36:50;16.77;;;12.93;;
67442;SDS011;54311;51.726;5.154;2023-08-30T03:39:19;14.07;;;12.45;;
67442;SDS011;54311;51.726;5.154;2023-08-30T03:41:45;15.20;;;13.20;;
67442;SDS011;54311;51.726;5.154;2023-08-30T03:44:10;13.27;;;11.98;;
67442;SDS011;54311;51.726;5.154;2023-08-30T03:46:36;17.95;;;11.88;;
67442;SDS011;54311;51.726;5.154;2023-08-30T03:49:01;13.82;;;12.38;;
67442;SDS011;54311;51.726;5.154;2023-08-30T03:51:28;14.10;;;12.70;;
67442;SDS011;54311;51.726;5.154;2023-08-30T03:53:54;15.68;;;13.35;;
67442;SDS011;54311;51.726;5.154;2023-08-30T03:56:21;14.35;;;12.85;;
67442;SDS011;54311;51.726;5.154;2023-08-30T03:58:46;13.43;;;12.13;;
67442;SDS011;54311;51.726;5.154;2023-08-30T04:01:12;14.57;;;13.02;;
67442;SDS011;54311;51.726;5.154;2023-08-30T04:03:37;13.95;;;12.57;;
67442;SDS011;54311;51.726;5.154;2023-08-30T04:06:02;13.93;;;12.57;;
67442;SDS011;54311;51.726;5.154;2023-08-30T04:08:28;14.77;;;13.13;;
67442;SDS011;54311;51.726;5.154;2023-08-30T04:10:53;14.27;;;12.90;;
67442;SDS011;54311;51.726;5.154;2023-08-30T04:13:19;14.02;;;12.55;;
67442;SDS011;54311;51.726;5.154;2023-08-30T04:15:44;18.77;;;13.43;;
67442;SDS011;54311;51.726;5.154;2023-08-30T04:18:09;14.40;;;13.10;;
67442;SDS011;54311;51.726;5.154;2023-08-30T04:20:35;16.52;;;13.25;;
67442;SDS011;54311;51.726;5.154;2023-08-30T04:23:01;15.60;;;13.43;;
67442;SDS011;54311;51.726;5.154;2023-08-30T04:25:29;16.33;;;14.70;;
67442;SDS011;54311;51.726;5.154;2023-08-30T04:27:55;14.25;;;12.85;;
67442;SDS011;54311;51.726;5.154;2023-08-30T04:30:21;15.90;;;14.20;;
67442;SDS011;54311;51.726;5.154;2023-08-30T04:32:46;16.40;;;13.93;;
67442;SDS011;54311;51.726;5.154;2023-08-30T04:35:12;15.25;;;13.70;;
67442;SDS011;54311;51.726;5.154;2023-08-30T04:37:37;16.75;;;14.05;;
67442;SDS011;54311;51.726;5.154;2023-08-30T04:40:07;15.10;;;13.70;;
67442;SDS011;54311;51.726;5.154;2023-08-30T04:42:36;16.45;;;13.75;;
67442;SDS011;54311;51.726;5.154;2023-08-30T04:45:02;24.17;;;14.70;;
67442;SDS011;54311;51.726;5.154;2023-08-30T04:47:28;15.85;;;14.20;;
67442;SDS011;54311;51.726;5.154;2023-08-30T04:49:55;18.65;;;14.60;;
67442;SDS011;54311;51.726;5.154;2023-08-30T04:52:20;14.55;;;13.25;;
67442;SDS011;54311;51.726;5.154;2023-08-30T04:54:45;15.10;;;13.60;;
67442;SDS011;54311;51.726;5.154;2023-08-30T04:57:11;16.58;;;14.82;;
67442;SDS011;54311;51.726;5.154;2023-08-30T04:59:39;15.98;;;14.27;;
67442;SDS011;54311;51.726;5.154;2023-08-30T05:02:05;15.63;;;13.80;;
67442;SDS011;54311;51.726;5.154;2023-08-30T05:04:31;16.00;;;13.85;;
67442;SDS011;54311;51.726;5.154;2023-08-30T05:06:56;14.85;;;13.45;;
67442;SDS011;54311;51.726;5.154;2023-08-30T05:09:21;16.00;;;14.48;;
67442;SDS011;54311;51.726;5.154;2023-08-30T05:11:49;16.17;;;14.50;;
67442;SDS011;54311;51.726;5.154;2023-08-30T05:14:18;17.08;;;15.30;;
67442;SDS011;54311;51.726;5.154;2023-08-30T05:16:44;15.20;;;13.80;;
67442;SDS011;54311;51.726;5.154;2023-08-30T05:19:09;17.40;;;15.70;;
67442;SDS011;54311;51.726;5.154;2023-08-30T05:21:35;16.05;;;14.50;;
67442;SDS011;54311;51.726;5.154;2023-08-30T05:24:01;16.45;;;14.95;;
67442;SDS011;54311;51.726;5.154;2023-08-30T05:26:26;20.58;;;13.82;;
67442;SDS011;54311;51.726;5.154;2023-08-30T05:28:52;16.38;;;14.23;;
67442;SDS011;54311;51.726;5.154;2023-08-30T05:31:17;15.98;;;14.48;;
67442;SDS011;54311;51.726;5.154;2023-08-30T05:33:42;17.25;;;15.48;;
67442;SDS011;54311;51.726;5.154;2023-08-30T05:36:08;16.30;;;14.70;;
67442;SDS011;54311;51.726;5.154;2023-08-30T05:38:33;18.55;;;14.40;;
67442;SDS011;54311;51.726;5.154;2023-08-30T05:40:58;16.35;;;14.77;;
67442;SDS011;54311;51.726;5.154;2023-08-30T05:43:24;18.55;;;14.95;;
67442;SDS011;54311;51.726;5.154;2023-08-30T05:45:49;16.13;;;14.40;;
67442;SDS011;54311;51.726;5.154;2023-08-30T05:48:14;16.08;;;13.63;;
67442;SDS011;54311;51.726;5.154;2023-08-30T05:50:40;16.60;;;14.35;;
67442;SDS011;54311;51.726;5.154;2023-08-30T05:53:05;17.13;;;14.02;;
67442;SDS011;54311;51.726;5.154;2023-08-30T05:55:31;16.45;;;14.00;;
67442;SDS011;54311;51.726;5.154;2023-08-30T05:57:56;19.00;;;13.90;;
67442;SDS011;54311;51.726;5.154;2023-08-30T06:00:22;17.55;;;14.15;;
67442;SDS011;54311;51.726;5.154;2023-08-30T06:02:48;19.40;;;15.05;;
67442;SDS011;54311;51.726;5.154;2023-08-30T06:05:13;15.40;;;13.82;;
67442;SDS011;54311;51.726;5.154;2023-08-30T06:07:38;17.88;;;13.73;;
67442;SDS011;54311;51.726;5.154;2023-08-30T06:10:04;16.50;;;13.70;;
67442;SDS011;54311;51.726;5.154;2023-08-30T06:12:29;15.13;;;13.73;;
67442;SDS011;54311;51.726;5.154;2023-08-30T06:14:55;15.13;;;13.73;;
67442;SDS011;54311;51.726;5.154;2023-08-30T06:17:20;15.48;;;14.07;;
67442;SDS011;54311;51.726;5.154;2023-08-30T06:19:46;15.05;;;13.55;;
67442;SDS011;54311;51.726;5.154;2023-08-30T06:22:12;15.38;;;13.88;;
67442;SDS011;54311;51.726;5.154;2023-08-30T06:24:38;14.52;;;13.02;;
67442;SDS011;54311;51.726;5.154;2023-08-30T06:27:03;18.05;;;14.05;;
67442;SDS011;54311;51.726;5.154;2023-08-30T06:29:29;16.52;;;13.88;;
67442;SDS011;54311;51.726;5.154;2023-08-30T06:31:54;14.98;;;13.63;;
67442;SDS011;54311;51.726;5.154;2023-08-30T06:34:19;17.52;;;14.63;;
67442;SDS011;54311;51.726;5.154;2023-08-30T06:36:45;16.58;;;14.15;;
67442;SDS011;54311;51.726;5.154;2023-08-30T06:39:10;18.98;;;14.10;;
67442;SDS011;54311;51.726;5.154;2023-08-30T06:41:36;16.63;;;14.70;;
67442;SDS011;54311;51.726;5.154;2023-08-30T06:44:01;15.05;;;13.65;;
67442;SDS011;54311;51.726;5.154;2023-08-30T06:46:26;17.05;;;15.25;;
67442;SDS011;54311;51.726;5.154;2023-08-30T06:48:52;15.60;;;14.18;;
67442;SDS011;54311;51.726;5.154;2023-08-30T06:51:17;17.15;;;14.38;;
67442;SDS011;54311;51.726;5.154;2023-08-30T06:53:42;16.95;;;14.32;;
67442;SDS011;54311;51.726;5.154;2023-08-30T06:56:08;19.33;;;13.43;;
67442;SDS011;54311;51.726;5.154;2023-08-30T06:58:33;16.08;;;14.38;;
67442;SDS011;54311;51.726;5.154;2023-08-30T07:00:58;16.17;;;13.73;;
67442;SDS011;54311;51.726;5.154;2023-08-30T07:03:24;14.45;;;13.15;;
67442;SDS011;54311;51.726;5.154;2023-08-30T07:05:52;19.58;;;13.32;;
67442;SDS011;54311;51.726;5.154;2023-08-30T07:08:17;16.25;;;13.75;;
67442;SDS011;54311;51.726;5.154;2023-08-30T07:10:43;14.80;;;13.40;;
67442;SDS011;54311;51.726;5.154;2023-08-30T07:13:09;15.50;;;13.95;;
67442;SDS011;54311;51.726;5.154;2023-08-30T07:15:37;16.52;;;14.82;;
67442;SDS011;54311;51.726;5.154;2023-08-30T07:18:04;16.90;;;14.60;;
67442;SDS011;54311;51.726;5.154;2023-08-30T07:20:29;16.77;;;15.00;;
67442;SDS011;54311;51.726;5.154;2023-08-30T07:22:55;15.45;;;13.82;;
67442;SDS011;54311;51.726;5.154;2023-08-30T07:25:20;15.98;;;13.82;;
67442;SDS011;54311;51.726;5.154;2023-08-30T07:27:45;14.93;;;13.43;;
67442;SDS011;54311;51.726;5.154;2023-08-30T07:30:11;14.85;;;13.32;;
67442;SDS011;54311;51.726;5.154;2023-08-30T07:32:36;16.38;;;13.05;;
67442;SDS011;54311;51.726;5.154;2023-08-30T07:35:03;14.20;;;12.70;;
67442;SDS011;54311;51.726;5.154;2023-08-30T07:37:29;14.20;;;12.80;;
67442;SDS011;54311;51.726;5.154;2023-08-30T07:39:54;12.40;;;11.20;;
67442;SDS011;54311;51.726;5.154;2023-08-30T07:42:20;13.52;;;12.13;;
67442;SDS011;54311;51.726;5.154;2023-08-30T07:44:45;13.95;;;12.63;;
67442;SDS011;54311;51.726;5.154;2023-08-30T07:47:10;12.63;;;11.30;;
67442;SDS011;54311;51.726;5.154;2023-08-30T07:49:36;16.98;;;12.43;;
67442;SDS011;54311;51.726;5.154;2023-08-30T07:52:01;12.60;;;11.40;;
67442;SDS011;54311;51.726;5.154;2023-08-30T07:54:27;13.98;;;11.80;;
67442;SDS011;54311;51.726;5.154;2023-08-30T07:56:53;12.65;;;11.35;;
67442;SDS011;54311;51.726;5.154;2023-08-30T07:59:18;13.38;;;11.23;;
67442;SDS011;54311;51.726;5.154;2023-08-30T08:01:44;11.98;;;9.85;;
67442;SDS011;54311;51.726;5.154;2023-08-30T08:04:09;11.27;;;10.18;;
67442;SDS011;54311;51.726;5.154;2023-08-30T08:06:34;10.63;;;9.20;;
67442;SDS011;54311;51.726;5.154;2023-08-30T08:09:00;14.88;;;8.85;;
67442;SDS011;54311;51.726;5.154;2023-08-30T08:11:25;10.07;;;9.18;;
67442;SDS011;54311;51.726;5.154;2023-08-30T08:13:51;11.75;;;8.70;;
67442;SDS011;54311;51.726;5.154;2023-08-30T08:16:16;9.32;;;8.40;;
67442;SDS011;54311;51.726;5.154;2023-08-30T08:18:41;10.18;;;8.57;;
67442;SDS011;54311;51.726;5.154;2023-08-30T08:21:07;9.35;;;8.45;;
67442;SDS011;54311;51.726;5.154;2023-08-30T08:23:32;9.25;;;8.15;;
67442;SDS011;54311;51.726;5.154;2023-08-30T08:25:58;9.48;;;8.18;;
67442;SDS011;54311;51.726;5.154;2023-08-30T08:28:24;8.30;;;7.63;;
67442;SDS011;54311;51.726;5.154;2023-08-30T08:30:49;9.95;;;8.15;;
67442;SDS011;54311;51.726;5.154;2023-08-30T08:33:16;9.38;;;8.45;;
67442;SDS011;54311;51.726;5.154;2023-08-30T08:35:42;10.77;;;9.88;;
67442;SDS011;54311;51.726;5.154;2023-08-30T08:38:08;14.13;;;10.98;;
67442;SDS011;54311;51.726;5.154;2023-08-30T08:40:36;12.68;;;11.52;;
67442;SDS011;54311;51.726;5.154;2023-08-30T08:43:03;13.85;;;11.82;;
67442;SDS011;54311;51.726;5.154;2023-08-30T08:45:29;13.70;;;12.50;;
67442;SDS011;54311;51.726;5.154;2023-08-30T08:47:56;15.20;;;13.70;;
67442;SDS011;54311;51.726;5.154;2023-08-30T08:50:21;15.73;;;14.27;;
67442;SDS011;54311;51.726;5.154;2023-08-30T08:52:47;16.90;;;15.20;;
67442;SDS011;54311;51.726;5.154;2023-08-30T08:55:13;17.05;;;15.25;;
67442;SDS011;54311;51.726;5.154;2023-08-30T08:57:38;21.15;;;17.42;;
67442;SDS011;54311;51.726;5.154;2023-08-30T09:00:04;20.92;;;18.45;;
67442;SDS011;54311;51.726;5.154;2023-08-30T09:02:31;20.30;;;18.17;;
67442;SDS011;54311;51.726;5.154;2023-08-30T09:04:57;21.33;;;19.08;;
67442;SDS011;54311;51.726;5.154;2023-08-30T09:07:24;21.80;;;19.80;;
67442;SDS011;54311;51.726;5.154;2023-08-30T09:09:50;23.02;;;20.92;;
67442;SDS011;54311;51.726;5.154;2023-08-30T09:12:17;21.30;;;19.30;;
67442;SDS011;54311;51.726;5.154;2023-08-30T09:14:52;23.58;;;20.85;;
67442;SDS011;54311;51.726;5.154;2023-08-30T09:17:19;23.45;;;20.77;;
67442;SDS011;54311;51.726;5.154;2023-08-30T09:19:44;23.80;;;21.60;;
67442;SDS011;54311;51.726;5.154;2023-08-30T09:22:10;24.48;;;22.00;;
67442;SDS011;54311;51.726;5.154;2023-08-30T09:24:38;24.10;;;21.90;;
67442;SDS011;54311;51.726;5.154;2023-08-30T09:27:04;23.77;;;21.63;;
67442;SDS011;54311;51.726;5.154;2023-08-30T09:29:30;25.00;;;22.45;;
67442;SDS011;54311;51.726;5.154;2023-08-30T09:31:56;22.77;;;20.35;;
67442;SDS011;54311;51.726;5.154;2023-08-30T09:34:25;21.48;;;19.52;;
67442;SDS011;54311;51.726;5.154;2023-08-30T09:36:51;21.60;;;19.42;;
67442;SDS011;54311;51.726;5.154;2023-08-30T09:39:17;21.13;;;18.90;;
67442;SDS011;54311;51.726;5.154;2023-08-30T09:41:43;21.95;;;19.88;;
67442;SDS011;54311;51.726;5.154;2023-08-30T09:44:10;22.42;;;20.30;;
67442;SDS011;54311;51.726;5.154;2023-08-30T09:46:48;21.50;;;19.52;;
67442;SDS011;54311;51.726;5.154;2023-08-30T09:49:14;22.45;;;20.52;;
67442;SDS011;54311;51.726;5.154;2023-08-30T09:51:40;22.02;;;20.15;;
67442;SDS011;54311;51.726;5.154;2023-08-30T09:54:08;21.38;;;19.50;;
67442;SDS011;54311;51.726;5.154;2023-08-30T09:56:38;19.15;;;17.45;;
67442;SDS011;54311;51.726;5.154;2023-08-30T09:59:05;19.17;;;17.35;;
67442;SDS011;54311;51.726;5.154;2023-08-30T10:01:30;16.15;;;14.65;;
67442;SDS011;54311;51.726;5.154;2023-08-30T10:03:56;13.63;;;12.45;;
67442;SDS011;54311;51.726;5.154;2023-08-30T10:06:22;13.57;;;12.48;;
67442;SDS011;54311;51.726;5.154;2023-08-30T10:08:49;11.40;;;10.38;;
67442;SDS011;54311;51.726;5.154;2023-08-30T10:11:17;8.73;;;7.18;;
67442;SDS011;54311;51.726;5.154;2023-08-30T10:13:43;9.48;;;7.97;;
67442;SDS011;54311;51.726;5.154;2023-08-30T10:16:09;6.70;;;6.20;;
67442;SDS011;54311;51.726;5.154;2023-08-30T10:18:38;4.97;;;4.10;;
67442;SDS011;54311;51.726;5.154;2023-08-30T10:21:06;4.40;;;3.95;;
67442;SDS011;54311;51.726;5.154;2023-08-30T10:23:33;4.60;;;4.18;;
67442;SDS011;54311;51.726;5.154;2023-08-30T10:25:59;6.28;;;4.63;;
67442;SDS011;54311;51.726;5.154;2023-08-30T10:28:26;4.70;;;4.30;;
67442;SDS011;54311;51.726;5.154;2023-08-30T10:30:52;5.43;;;4.85;;
67442;SDS011;54311;51.726;5.154;2023-08-30T10:33:17;4.75;;;4.45;;
67442;SDS011;54311;51.726;5.154;2023-08-30T10:35:46;6.22;;;4.97;;
67442;SDS011;54311;51.726;5.154;2023-08-30T10:38:23;7.93;;;5.32;;
67442;SDS011;54311;51.726;5.154;2023-08-30T10:40:50;5.55;;;5.00;;
67442;SDS011;54311;51.726;5.154;2023-08-30T10:43:16;7.38;;;5.10;;
67442;SDS011;54311;51.726;5.154;2023-08-30T10:45:41;7.05;;;5.32;;
67442;SDS011;54311;51.726;5.154;2023-08-30T10:48:06;5.10;;;4.70;;
67442;SDS011;54311;51.726;5.154;2023-08-30T10:50:32;8.23;;;5.63;;
67442;SDS011;54311;51.726;5.154;2023-08-30T10:52:58;7.70;;;6.10;;
67442;SDS011;54311;51.726;5.154;2023-08-30T10:55:24;7.80;;;6.00;;
67442;SDS011;54311;51.726;5.154;2023-08-30T10:58:03;6.45;;;5.95;;
67442;SDS011;54311;51.726;5.154;2023-08-30T11:00:29;7.78;;;5.75;;
67442;SDS011;54311;51.726;5.154;2023-08-30T11:02:55;11.05;;;6.40;;
67442;SDS011;54311;51.726;5.154;2023-08-30T11:05:24;8.27;;;5.55;;
67442;SDS011;54311;51.726;5.154;2023-08-30T11:07:51;6.95;;;5.35;;
67442;SDS011;54311;51.726;5.154;2023-08-30T11:10:17;10.77;;;5.53;;
67442;SDS011;54311;51.726;5.154;2023-08-30T11:12:44;10.25;;;6.43;;
67442;SDS011;54311;51.726;5.154;2023-08-30T11:15:10;6.32;;;5.80;;
67442;SDS011;54311;51.726;5.154;2023-08-30T11:17:36;12.00;;;6.25;;
67442;SDS011;54311;51.726;5.154;2023-08-30T11:20:35;9.55;;;5.60;;
67442;SDS011;54311;51.726;5.154;2023-08-30T11:22:53;7.40;;;4.47;;
67442;SDS011;54311;51.726;5.154;2023-08-30T11:25:20;6.88;;;3.95;;
67442;SDS011;54311;51.726;5.154;2023-08-30T11:27:45;7.55;;;4.20;;
67442;SDS011;54311;51.726;5.154;2023-08-30T11:30:12;12.52;;;4.90;;
67442;SDS011;54311;51.726;5.154;2023-08-30T11:32:41;7.85;;;4.80;;
67442;SDS011;54311;51.726;5.154;2023-08-30T11:35:10;13.52;;;4.38;;
67442;SDS011;54311;51.726;5.154;2023-08-30T11:37:35;12.30;;;3.80;;
67442;SDS011;54311;51.726;5.154;2023-08-30T11:40:01;11.40;;;4.53;;
67442;SDS011;54311;51.726;5.154;2023-08-30T11:42:27;15.52;;;4.47;;
67442;SDS011;54311;51.726;5.154;2023-08-30T11:44:53;9.55;;;4.20;;
67442;SDS011;54311;51.726;5.154;2023-08-30T11:47:25;10.75;;;4.10;;
67442;SDS011;54311;51.726;5.154;2023-08-30T11:49:55;18.40;;;4.28;;
67442;SDS011;54311;51.726;5.154;2023-08-30T11:52:26;9.05;;;3.67;;
67442;SDS011;54311;51.726;5.154;2023-08-30T11:54:52;11.00;;;5.15;;
67442;SDS011;54311;51.726;5.154;2023-08-30T11:57:19;13.23;;;4.63;;
67442;SDS011;54311;51.726;5.154;2023-08-30T11:59:44;10.63;;;3.90;;
67442;SDS011;54311;51.726;5.154;2023-08-30T12:02:11;14.98;;;4.97;;
67442;SDS011;54311;51.726;5.154;2023-08-30T12:04:45;9.77;;;4.07;;
67442;SDS011;54311;51.726;5.154;2023-08-30T12:07:32;9.23;;;4.20;;
67442;SDS011;54311;51.726;5.154;2023-08-30T12:12:31;9.82;;;4.13;;
67442;SDS011;54311;51.726;5.154;2023-08-30T12:14:56;10.15;;;3.70;;
67442;SDS011;54311;51.726;5.154;2023-08-30T12:17:22;12.38;;;3.67;;
67442;SDS011;54311;51.726;5.154;2023-08-30T12:19:55;10.38;;;3.65;;
67442;SDS011;54311;51.726;5.154;2023-08-30T12:22:21;11.15;;;3.75;;
67442;SDS011;54311;51.726;5.154;2023-08-30T12:24:46;10.38;;;4.05;;
67442;SDS011;54311;51.726;5.154;2023-08-30T12:27:12;8.13;;;3.10;;
67442;SDS011;54311;51.726;5.154;2023-08-30T12:29:38;11.50;;;4.22;;
67442;SDS011;54311;51.726;5.154;2023-08-30T12:32:04;8.45;;;4.15;;
67442;SDS011;54311;51.726;5.154;2023-08-30T12:34:29;9.75;;;4.75;;
67442;SDS011;54311;51.726;5.154;2023-08-30T12:36:54;11.10;;;3.80;;
67442;SDS011;54311;51.726;5.154;2023-08-30T12:39:20;6.55;;;3.20;;
67442;SDS011;54311;51.726;5.154;2023-08-30T12:41:45;8.18;;;3.30;;
67442;SDS011;54311;51.726;5.154;2023-08-30T12:44:11;9.82;;;3.22;;
67442;SDS011;54311;51.726;5.154;2023-08-30T12:46:36;6.13;;;2.92;;
67442;SDS011;54311;51.726;5.154;2023-08-30T12:49:01;8.60;;;2.83;;
67442;SDS011;54311;51.726;5.154;2023-08-30T12:51:27;7.10;;;2.88;;
67442;SDS011;54311;51.726;5.154;2023-08-30T12:53:54;9.30;;;3.10;;
67442;SDS011;54311;51.726;5.154;2023-08-30T12:56:19;8.65;;;3.25;;
67442;SDS011;54311;51.726;5.154;2023-08-30T12:58:44;7.88;;;3.00;;
67442;SDS011;54311;51.726;5.154;2023-08-30T13:01:10;6.47;;;3.15;;
67442;SDS011;54311;51.726;5.154;2023-08-30T13:03:35;8.40;;;3.40;;
67442;SDS011;54311;51.726;5.154;2023-08-30T13:06:01;11.20;;;3.15;;
67442;SDS011;54311;51.726;5.154;2023-08-30T13:08:27;6.72;;;2.65;;
67442;SDS011;54311;51.726;5.154;2023-08-30T13:10:52;11.07;;;3.53;;
67442;SDS011;54311;51.726;5.154;2023-08-30T13:13:17;9.20;;;3.00;;
67442;SDS011;54311;51.726;5.154;2023-08-30T13:15:43;6.85;;;3.00;;
67442;SDS011;54311;51.726;5.154;2023-08-30T13:18:08;7.15;;;2.90;;
67442;SDS011;54311;51.726;5.154;2023-08-30T13:20:37;11.38;;;2.85;;
67442;SDS011;54311;51.726;5.154;2023-08-30T13:23:03;7.15;;;3.05;;
67442;SDS011;54311;51.726;5.154;2023-08-30T13:25:28;4.55;;;2.47;;
67442;SDS011;54311;51.726;5.154;2023-08-30T13:27:53;7.35;;;3.42;;
67442;SDS011;54311;51.726;5.154;2023-08-30T13:30:19;8.02;;;2.83;;
67442;SDS011;54311;51.726;5.154;2023-08-30T13:32:44;6.80;;;2.90;;
67442;SDS011;54311;51.726;5.154;2023-08-30T13:35:09;7.80;;;2.70;;
67442;SDS011;54311;51.726;5.154;2023-08-30T13:37:35;6.45;;;3.05;;
67442;SDS011;54311;51.726;5.154;2023-08-30T13:40:00;6.25;;;2.80;;
67442;SDS011;54311;51.726;5.154;2023-08-30T13:42:25;6.05;;;2.90;;
67442;SDS011;54311;51.726;5.154;2023-08-30T13:44:51;7.95;;;2.85;;
67442;SDS011;54311;51.726;5.154;2023-08-30T13:47:16;8.68;;;2.92;;
67442;SDS011;54311;51.726;5.154;2023-08-30T13:49:42;7.13;;;2.70;;
67442;SDS011;54311;51.726;5.154;2023-08-30T13:52:07;7.88;;;2.90;;
67442;SDS011;54311;51.726;5.154;2023-08-30T13:54:32;10.10;;;3.83;;
67442;SDS011;54311;51.726;5.154;2023-08-30T13:56:58;10.15;;;2.65;;
67442;SDS011;54311;51.726;5.154;2023-08-30T13:59:23;6.30;;;2.75;;
67442;SDS011;54311;51.726;5.154;2023-08-30T14:01:49;9.25;;;3.28;;
67442;SDS011;54311;51.726;5.154;2023-08-30T14:04:14;5.70;;;2.20;;
67442;SDS011;54311;51.726;5.154;2023-08-30T14:06:40;10.77;;;3.00;;
67442;SDS011;54311;51.726;5.154;2023-08-30T14:09:05;5.88;;;2.53;;
67442;SDS011;54311;51.726;5.154;2023-08-30T14:11:33;7.30;;;2.80;;
67442;SDS011;54311;51.726;5.154;2023-08-30T14:14:00;7.47;;;2.55;;
67442;SDS011;54311;51.726;5.154;2023-08-30T14:16:26;7.00;;;2.95;;
67442;SDS011;54311;51.726;5.154;2023-08-30T14:18:51;4.28;;;2.33;;
67442;SDS011;54311;51.726;5.154;2023-08-30T14:21:17;6.07;;;2.40;;
67442;SDS011;54311;51.726;5.154;2023-08-30T14:23:42;5.28;;;2.65;;
67442;SDS011;54311;51.726;5.154;2023-08-30T14:26:08;8.38;;;2.58;;
67442;SDS011;54311;51.726;5.154;2023-08-30T14:28:37;4.85;;;2.63;;
67442;SDS011;54311;51.726;5.154;2023-08-30T14:31:05;11.15;;;3.42;;
67442;SDS011;54311;51.726;5.154;2023-08-30T14:33:31;7.40;;;3.38;;
67442;SDS011;54311;51.726;5.154;2023-08-30T14:35:57;8.20;;;3.00;;